Archiv-/Tagesdaten

--Timestamp---	Temp	Chill	HIndex	Humid	Dewpt	 Wind 	HiWind	WindDir	Rain 	Barom	Solar	 ET  	 UV 
--------------	----	-----	------	-----	-----	------	------	-------	-----	-----	-----	-----	----
20260324 00:00	5.2	5.2	5.2	73	0.7	3	8	180	0.0	1020.5	0	0.025	0.0
20260324 00:05	5.1	5.1	5.1	73	0.6	0	3	180	0.0	1020.4	0	0.000	0.0
20260324 00:10	5.0	5.0	5.0	73	0.6	0	0	-100000	0.0	1020.5	0	0.000	0.0
20260324 00:15	4.9	4.9	4.9	73	0.5	0	0	-100000	0.0	1020.5	0	0.000	0.0
20260324 00:20	4.9	4.9	4.9	74	0.6	0	0	-100000	0.0	1020.4	0	0.000	0.0
20260324 00:25	4.8	4.8	4.8	74	0.6	0	0	-100000	0.0	1020.5	0	0.000	0.0
20260324 00:30	4.8	4.8	4.8	74	0.5	3	6	180	0.0	1020.5	0	0.000	0.0
20260324 00:35	4.8	4.8	4.8	74	0.5	3	6	180	0.0	1020.5	0	0.000	0.0
20260324 00:40	4.7	4.7	4.7	74	0.5	2	6	180	0.0	1020.5	0	0.000	0.0
20260324 00:45	4.7	4.7	4.7	74	0.4	0	0	-100000	0.0	1020.5	0	0.000	0.0
20260324 00:50	4.7	4.7	4.7	74	0.4	0	0	-100000	0.0	1020.5	0	0.000	0.0
20260324 00:55	4.6	4.6	4.6	74	0.4	0	0	-100000	0.0	1020.6	0	0.000	0.0
20260324 01:00	4.6	4.6	4.6	75	0.5	0	0	-100000	0.0	1020.6	0	0.025	0.0
20260324 01:05	4.4	4.4	4.4	75	0.4	0	0	-100000	0.0	1020.4	0	0.000	0.0
20260324 01:10	4.3	4.3	4.3	75	0.3	0	0	-100000	0.0	1020.4	0	0.000	0.0
20260324 01:15	4.3	4.3	4.3	76	0.5	0	0	-100000	0.0	1020.4	0	0.000	0.0
20260324 01:20	4.2	4.2	4.2	76	0.4	0	0	-100000	0.0	1020.5	0	0.000	0.0
20260324 01:25	4.1	4.1	4.1	76	0.3	0	0	-100000	0.0	1020.5	0	0.000	0.0
20260324 01:30	4.1	4.1	4.1	76	0.3	0	0	-100000	0.0	1020.7	0	0.000	0.0
20260324 01:35	4.0	4.0	4.0	77	0.3	0	0	-100000	0.0	1020.6	0	0.000	0.0
20260324 01:40	4.0	4.0	4.0	77	0.3	0	0	-100000	0.0	1020.6	0	0.000	0.0
20260324 01:45	4.1	4.1	4.1	77	0.4	0	0	-100000	0.0	1020.5	0	0.000	0.0
20260324 01:50	4.1	4.1	4.1	77	0.4	0	0	-100000	0.0	1020.6	0	0.000	0.0
20260324 01:55	4.1	4.1	4.1	77	0.4	0	0	-100000	0.0	1020.6	0	0.000	0.0
20260324 02:00	3.9	3.9	3.9	77	0.2	0	0	-100000	0.0	1020.6	0	0.025	0.0
20260324 02:05	3.8	3.8	3.8	77	0.2	0	0	-100000	0.0	1020.5	0	0.000	0.0
20260324 02:10	3.8	3.8	3.8	77	0.2	0	0	-100000	0.0	1020.6	0	0.000	0.0
20260324 02:15	3.8	3.8	3.8	77	0.1	0	0	-100000	0.0	1020.6	0	0.000	0.0
20260324 02:20	3.7	3.7	3.7	77	0.1	0	0	-100000	0.0	1020.5	0	0.000	0.0
20260324 02:25	3.7	3.7	3.7	77	0.1	0	0	-100000	0.0	1020.5	0	0.000	0.0
20260324 02:30	3.7	3.7	3.7	77	0.0	0	0	-100000	0.0	1020.5	0	0.000	0.0
20260324 02:35	3.7	3.7	3.7	78	0.2	0	0	-100000	0.0	1020.4	0	0.000	0.0
20260324 02:40	3.6	3.6	3.6	78	0.1	0	0	-100000	0.0	1020.4	0	0.000	0.0
20260324 02:45	3.6	3.6	3.6	78	0.1	0	0	-100000	0.0	1020.4	0	0.000	0.0
20260324 02:50	3.6	3.6	3.6	78	0.1	0	0	-100000	0.0	1020.4	0	0.000	0.0
20260324 02:55	3.6	3.6	3.6	78	0.1	0	0	-100000	0.0	1020.4	0	0.000	0.0
20260324 03:00	3.6	3.6	3.6	78	0.1	0	0	-100000	0.0	1020.5	0	0.000	0.0
20260324 03:05	3.5	3.5	3.5	78	0.0	0	0	-100000	0.0	1020.7	0	0.000	0.0
20260324 03:10	3.4	3.4	3.4	79	0.2	5	8	180	0.0	1020.7	0	0.000	0.0
20260324 03:15	3.4	3.4	3.4	79	0.2	5	8	180	0.0	1020.8	0	0.000	0.0
20260324 03:20	3.3	3.3	3.3	79	0.0	5	6	158	0.0	1020.9	0	0.000	0.0
20260324 03:25	3.3	3.3	3.3	79	0.0	3	6	158	0.0	1021.0	0	0.000	0.0
20260324 03:30	3.3	3.3	3.3	79	-0.0	5	6	180	0.0	1021.1	0	0.000	0.0
20260324 03:35	3.3	3.3	3.3	79	-0.0	5	8	180	0.0	1021.1	0	0.000	0.0
20260324 03:40	3.3	3.3	3.3	79	0.0	5	8	180	0.0	1021.1	0	0.000	0.0
20260324 03:45	3.4	3.4	3.4	79	0.2	5	8	180	0.0	1021.2	0	0.000	0.0
20260324 03:50	3.4	3.4	3.4	79	0.2	3	6	180	0.0	1021.2	0	0.000	0.0
20260324 03:55	3.5	3.5	3.5	79	0.2	3	6	180	0.0	1021.1	0	0.000	0.0
20260324 04:00	3.5	3.5	3.5	79	0.2	3	6	158	0.0	1021.2	0	0.025	0.0
20260324 04:05	3.6	3.6	3.6	79	0.3	5	8	158	0.0	1021.0	0	0.000	0.0
20260324 04:10	3.6	3.6	3.6	79	0.3	5	10	180	0.0	1021.0	0	0.000	0.0
20260324 04:15	3.6	3.6	3.6	79	0.3	3	8	180	0.0	1021.0	0	0.000	0.0
20260324 04:20	3.6	3.6	3.6	79	0.3	5	6	180	0.0	1021.0	0	0.000	0.0
20260324 04:25	3.6	1.9	3.6	79	0.3	6	10	180	0.0	1021.0	0	0.000	0.0
20260324 04:30	3.6	3.6	3.6	79	0.3	5	10	180	0.0	1021.0	0	0.000	0.0
20260324 04:35	3.5	3.5	3.5	79	0.2	5	8	180	0.0	1021.0	0	0.000	0.0
20260324 04:40	3.6	1.9	3.6	79	0.3	6	10	180	0.0	1021.0	0	0.000	0.0
20260324 04:45	3.6	3.6	3.6	79	0.3	5	8	180	0.0	1021.0	0	0.000	0.0
20260324 04:50	3.6	3.6	3.6	79	0.3	5	8	180	0.0	1020.9	0	0.000	0.0
20260324 04:55	3.5	3.5	3.5	79	0.2	0	0	-100000	0.0	1021.0	0	0.000	0.0
20260324 05:00	3.6	3.6	3.6	79	0.3	0	0	-100000	0.0	1021.0	0	0.025	0.0
20260324 05:05	3.5	3.5	3.5	79	0.2	0	0	-100000	0.0	1021.3	0	0.000	0.0
20260324 05:10	3.6	3.6	3.6	79	0.3	0	0	-100000	0.0	1021.5	0	0.000	0.0
20260324 05:15	3.6	3.6	3.6	79	0.3	0	0	-100000	0.0	1021.5	0	0.000	0.0
20260324 05:20	3.6	3.6	3.6	79	0.3	0	0	-100000	0.0	1021.5	0	0.000	0.0
20260324 05:25	3.6	3.6	3.6	79	0.3	0	0	-100000	0.0	1021.6	0	0.000	0.0
20260324 05:30	3.5	3.5	3.5	79	0.2	0	0	-100000	0.0	1021.6	0	0.000	0.0
20260324 05:35	3.6	3.6	3.6	80	0.4	0	0	-100000	0.0	1021.6	0	0.000	0.0
20260324 05:40	3.7	3.7	3.7	80	0.5	0	0	-100000	0.0	1021.6	0	0.000	0.0
20260324 05:45	3.8	3.8	3.8	79	0.5	0	0	-100000	0.0	1021.7	2	0.000	0.0
20260324 05:50	3.8	3.8	3.8	79	0.5	0	0	-100000	0.0	1021.7	6	0.000	0.0
20260324 05:55	3.9	3.9	3.9	79	0.6	0	0	-100000	0.0	1021.7	8	0.000	0.0
20260324 06:00	4.1	4.1	4.1	78	0.6	0	0	-100000	0.0	1022.0	26	0.000	0.0
20260324 06:05	4.1	4.1	4.1	78	0.6	0	0	-100000	0.0	1022.2	29	0.000	0.0
20260324 06:10	4.1	4.1	4.1	78	0.6	0	0	-100000	0.0	1022.2	33	0.000	0.0
20260324 06:15	4.1	4.1	4.1	78	0.6	0	0	-100000	0.0	1022.2	35	0.000	0.0
20260324 06:20	4.1	4.1	4.1	78	0.6	2	5	270	0.0	1022.2	38	0.000	0.0
20260324 06:25	4.2	4.2	4.2	78	0.7	3	6	135	0.0	1022.1	41	0.000	0.0
20260324 06:30	4.2	4.2	4.2	78	0.7	3	6	158	0.0	1022.2	41	0.000	0.0
20260324 06:35	4.2	4.2	4.2	78	0.7	3	6	202	0.0	1022.1	47	0.000	0.0
20260324 06:40	4.3	4.3	4.3	78	0.8	3	8	248	0.0	1022.0	53	0.000	0.0
20260324 06:45	4.3	4.3	4.3	78	0.8	5	8	292	0.0	1022.1	64	0.000	0.0
20260324 06:50	4.4	4.4	4.4	78	0.9	5	8	180	0.0	1022.0	76	0.000	0.0
20260324 06:55	4.5	4.5	4.5	78	1.0	5	8	158	0.0	1022.0	84	0.000	0.0
20260324 07:00	4.7	4.7	4.7	78	1.2	5	10	180	0.0	1022.0	91	0.025	0.0
20260324 07:05	4.8	4.8	4.8	78	1.3	5	10	180	0.0	1022.0	93	0.000	0.0
20260324 07:10	5.1	5.1	5.1	78	1.5	3	8	180	0.0	1022.0	86	0.000	0.0
20260324 07:15	5.3	5.3	5.3	77	1.6	5	8	180	0.0	1021.9	78	0.000	0.0
20260324 07:20	5.6	5.6	5.6	77	1.9	3	6	202	0.0	1021.9	68	0.000	0.0
20260324 07:25	5.9	5.9	5.9	76	2.0	2	8	202	0.0	1021.9	64	0.000	0.0
20260324 07:30	6.2	6.2	6.2	75	2.1	3	8	202	0.0	1021.9	74	0.000	0.0
20260324 07:35	6.4	6.4	6.4	75	2.3	3	8	180	0.0	1021.8	84	0.000	0.0
20260324 07:40	6.6	6.6	6.6	74	2.3	2	8	180	0.0	1021.8	87	0.000	0.2
20260324 07:45	6.9	6.9	6.9	72	2.2	3	8	180	0.0	1021.7	104	0.000	0.5
20260324 07:50	7.2	7.2	7.2	71	2.3	5	8	180	0.0	1021.8	110	0.000	0.5
20260324 07:55	7.5	7.5	7.5	70	2.4	5	8	180	0.0	1021.6	119	0.000	0.5
20260324 08:00	7.7	7.7	7.7	69	2.4	5	8	202	0.0	1021.5	116	0.051	0.5
20260324 08:05	8.0	8.0	8.0	68	2.5	3	8	202	0.0	1021.7	114	0.000	0.5
20260324 08:10	8.2	8.2	8.2	66	2.2	5	8	202	0.0	1021.8	114	0.000	0.5
20260324 08:15	8.3	8.3	8.3	66	2.4	3	6	225	0.0	1021.7	113	0.000	0.6
20260324 08:20	8.4	8.4	8.4	66	2.4	5	10	202	0.0	1021.8	109	0.000	0.6
20260324 08:25	8.5	8.5	8.5	66	2.5	3	8	202	0.0	1021.9	99	0.000	0.6
20260324 08:30	8.6	8.6	8.6	66	2.6	2	6	202	0.0	1022.0	107	0.000	0.6
20260324 08:35	8.7	8.7	8.7	65	2.5	3	8	202	0.0	1021.8	121	0.000	0.7
20260324 08:40	8.9	8.9	8.9	65	2.7	5	10	225	0.0	1021.7	142	0.000	0.8
20260324 08:45	9.1	9.1	9.1	64	2.7	5	8	202	0.0	1021.8	156	0.000	0.8
20260324 08:50	9.3	9.3	9.3	65	3.1	2	8	225	0.0	1021.8	158	0.000	0.8
20260324 08:55	9.5	9.5	9.5	64	3.0	3	6	202	0.0	1021.8	164	0.000	0.8
20260324 09:00	9.8	9.8	9.8	63	3.1	3	8	248	0.0	1021.7	170	0.076	0.8
20260324 09:05	9.8	9.8	9.8	62	2.9	2	5	202	0.0	1021.8	171	0.000	0.9
20260324 09:10	10.1	10.1	10.1	61	2.9	2	6	270	0.0	1021.9	166	0.000	0.9
20260324 09:15	10.2	10.2	10.2	61	3.0	5	8	270	0.0	1022.0	159	0.000	0.8
20260324 09:20	10.4	10.4	10.4	59	2.8	5	10	292	0.0	1021.9	151	0.000	0.9
20260324 09:25	10.6	10.6	10.6	59	2.9	5	10	270	0.0	1021.9	154	0.000	0.9
20260324 09:30	10.7	10.7	10.7	60	3.2	3	8	248	0.0	1021.9	156	0.000	1.0
20260324 09:35	10.8	10.8	10.8	60	3.3	5	8	292	0.0	1021.9	156	0.000	1.0
20260324 09:40	10.8	10.8	10.8	60	3.4	3	8	270	0.0	1021.7	159	0.000	1.0
20260324 09:45	11.2	11.2	11.2	57	3.0	3	8	315	0.0	1021.5	177	0.000	1.1
20260324 09:50	11.3	11.3	11.3	56	2.9	3	8	202	0.0	1021.5	167	0.000	1.1
20260324 09:55	11.4	11.4	11.4	55	2.7	3	10	270	0.0	1021.5	154	0.000	1.1
20260324 10:00	11.4	11.4	11.4	56	3.0	2	5	270	0.0	1021.4	151	0.102	1.1
20260324 10:05	11.6	11.6	11.6	55	2.9	2	6	315	0.0	1021.6	145	0.000	1.1
20260324 10:10	11.9	11.9	11.9	55	3.1	2	6	315	0.0	1021.5	137	0.000	1.2
20260324 10:15	12.1	12.1	12.1	55	3.3	3	10	270	0.0	1021.5	131	0.000	1.2
20260324 10:20	12.1	12.1	12.1	53	2.8	5	10	292	0.0	1021.5	135	0.000	1.2
20260324 10:25	12.2	12.2	12.2	52	2.7	5	11	292	0.0	1021.5	123	0.000	1.2
20260324 10:30	12.3	12.3	12.3	52	2.7	3	11	292	0.0	1021.4	126	0.000	1.2
20260324 10:35	12.3	12.3	12.3	51	2.4	3	8	248	0.0	1021.4	119	0.000	1.2
20260324 10:40	12.4	12.4	12.4	51	2.6	5	10	292	0.0	1021.2	115	0.000	1.2
20260324 10:45	12.4	12.4	12.4	50	2.3	3	10	338	0.0	1021.3	116	0.000	1.3
20260324 10:50	12.5	12.5	12.5	50	2.4	5	11	315	0.0	1021.1	127	0.000	1.3
20260324 10:55	12.4	12.4	12.4	51	2.6	3	10	22	0.0	1021.2	136	0.000	1.3
20260324 11:00	12.6	12.6	12.6	50	2.5	5	11	225	0.0	1021.1	146	0.102	1.4
20260324 11:05	12.8	12.8	12.8	49	2.4	5	11	225	0.0	1021.1	159	0.000	1.4
20260324 11:10	12.9	12.9	12.9	48	2.1	3	11	225	0.0	1021.1	160	0.000	1.3
20260324 11:15	12.9	12.9	12.9	47	1.9	8	14	292	0.0	1021.2	141	0.000	1.2
20260324 11:20	12.8	12.8	12.8	47	1.8	3	8	248	0.0	1021.1	144	0.000	1.2
20260324 11:25	12.8	12.8	12.8	48	2.0	5	10	292	0.0	1021.1	165	0.000	1.2
20260324 11:30	12.9	12.9	12.9	47	1.8	5	10	225	0.0	1021.0	202	0.000	1.3
20260324 11:35	12.9	12.9	12.9	46	1.6	3	8	270	0.0	1021.0	244	0.000	1.4
20260324 11:40	12.9	12.9	12.9	46	1.6	3	8	270	0.0	1021.0	221	0.000	1.4
20260324 11:45	13.0	13.0	13.0	47	1.9	2	5	0	0.0	1020.9	202	0.000	1.3
20260324 11:50	12.9	12.9	12.9	46	1.5	6	11	0	0.0	1020.8	373	0.000	1.6
20260324 11:55	12.9	12.9	12.9	48	2.1	3	8	338	0.0	1020.8	412	0.000	1.6
20260324 12:00	13.3	13.3	13.3	45	1.6	0	5	338	0.0	1020.7	312	0.152	1.6
20260324 12:05	13.6	13.6	13.6	44	1.5	3	6	315	0.0	1020.6	448	0.000	1.8
20260324 12:10	13.7	13.7	13.7	42	1.0	8	16	248	0.0	1020.6	371	0.000	1.7
20260324 12:15	13.6	13.6	13.6	41	0.6	5	10	270	0.0	1020.5	309	0.000	1.6
20260324 12:20	13.5	13.5	13.5	43	1.2	0	3	270	0.0	1020.4	225	0.000	1.6
20260324 12:25	13.6	13.6	13.6	43	1.3	3	11	292	0.0	1020.4	530	0.000	1.8
20260324 12:30	14.1	14.1	14.1	43	1.7	6	14	315	0.0	1020.4	538	0.000	1.7
20260324 12:35	14.1	14.1	14.1	41	1.0	2	5	270	0.0	1020.2	300	0.000	1.5
20260324 12:40	14.1	14.1	14.1	45	2.3	3	10	338	0.0	1020.2	525	0.000	1.8
20260324 12:45	14.2	14.2	14.2	44	2.1	5	10	0	0.0	1020.1	533	0.000	1.8
20260324 12:50	14.1	14.1	14.1	43	1.7	5	11	0	0.0	1020.1	572	0.000	1.8
20260324 12:55	14.3	14.3	14.3	44	2.2	5	10	315	0.0	1019.9	568	0.000	1.8
20260324 13:00	14.7	14.7	14.7	43	2.2	6	16	292	0.0	1019.9	565	0.254	1.7
20260324 13:05	14.8	14.8	14.8	42	2.0	2	8	338	0.0	1019.8	555	0.000	1.6
20260324 13:10	14.2	14.2	14.2	42	1.4	5	11	22	0.0	1020.0	146	0.000	1.2
20260324 13:15	13.7	13.7	13.7	43	1.3	3	8	45	0.0	1019.9	136	0.000	1.1
20260324 13:20	13.7	13.7	13.7	45	1.9	2	5	45	0.0	1019.9	230	0.000	1.1
20260324 13:25	13.6	13.6	13.6	44	1.5	3	10	45	0.0	1019.9	310	0.000	1.2
20260324 13:30	13.9	13.9	13.9	43	1.5	2	8	45	0.0	1019.8	475	0.000	1.4
20260324 13:35	14.3	14.3	14.3	44	2.2	2	6	45	0.0	1019.8	442	0.000	1.3
20260324 13:40	14.1	14.1	14.1	42	1.4	3	6	22	0.0	1019.7	465	0.000	1.3
20260324 13:45	14.6	14.6	14.6	44	2.4	3	10	338	0.0	1019.6	470	0.000	1.3
20260324 13:50	14.8	14.8	14.8	40	1.3	5	11	292	0.0	1019.4	425	0.000	1.2
20260324 13:55	14.6	14.6	14.6	42	1.8	5	14	225	0.0	1019.4	443	0.000	1.2
20260324 14:00	14.7	14.7	14.7	42	1.9	3	6	338	0.0	1019.2	430	0.229	1.1
20260324 14:05	14.9	14.9	14.9	41	1.8	3	10	68	0.0	1019.3	424	0.000	1.1
20260324 14:10	14.6	14.6	14.6	41	1.5	6	11	22	0.0	1019.2	410	0.000	1.0
20260324 14:15	14.3	14.3	14.3	42	1.5	3	10	45	0.0	1019.1	368	0.000	1.0
20260324 14:20	14.6	14.6	14.6	43	2.2	5	10	270	0.0	1019.1	310	0.000	0.9
20260324 14:25	14.8	14.8	14.8	42	2.0	3	6	225	0.0	1019.1	332	0.000	0.9
20260324 14:30	14.9	14.9	14.9	41	1.8	5	11	270	0.0	1019.1	366	0.000	0.9
20260324 14:35	15.2	15.2	15.2	41	2.0	3	11	270	0.0	1019.1	350	0.000	0.8
20260324 14:40	15.2	15.2	15.2	40	1.7	3	8	270	0.0	1019.0	320	0.000	0.7
20260324 14:45	15.3	15.3	15.3	39	1.4	2	3	270	0.0	1019.0	313	0.000	0.7
20260324 14:50	15.1	15.1	15.1	39	1.2	2	5	270	0.0	1019.0	313	0.000	0.7
20260324 14:55	14.8	14.8	14.8	40	1.4	5	14	0	0.0	1019.0	309	0.000	0.6
20260324 15:00	14.7	14.7	14.7	40	1.2	3	11	0	0.0	1019.1	295	0.000	0.6
20260324 15:05	14.8	14.8	14.8	41	1.7	3	6	338	0.0	1019.0	277	0.203	0.6
20260324 15:10	14.8	14.8	14.8	41	1.7	3	6	0	0.0	1018.9	283	0.000	0.5
20260324 15:15	15.1	15.1	15.1	40	1.6	3	5	292	0.0	1018.7	279	0.000	0.5
20260324 15:20	15.2	15.2	15.2	41	2.0	2	5	292	0.0	1018.7	258	0.000	0.4
20260324 15:25	15.1	15.1	15.1	40	1.6	2	6	292	0.0	1018.6	230	0.000	0.0
20260324 15:30	15.3	15.3	15.3	40	1.8	3	6	270	0.0	1018.5	223	0.000	0.0
20260324 15:35	15.4	15.4	15.4	38	1.1	5	8	270	0.0	1018.5	186	0.000	0.0
20260324 15:40	15.2	15.2	15.2	39	1.3	2	8	270	0.0	1018.6	229	0.000	0.0
20260324 15:45	15.3	15.3	15.3	39	1.5	3	8	292	0.0	1018.5	204	0.000	0.0
20260324 15:50	15.3	15.3	15.3	39	1.4	3	8	270	0.0	1018.3	188	0.000	0.0
20260324 15:55	15.3	15.3	15.3	38	1.1	2	5	248	0.0	1018.3	165	0.000	0.0
20260324 16:00	15.5	15.5	15.5	39	1.6	2	5	248	0.0	1018.2	177	0.152	0.0
20260324 16:05	15.6	15.6	15.6	38	1.3	2	5	248	0.0	1018.3	159	0.000	0.0
20260324 16:10	15.7	15.7	15.7	39	1.8	0	0	-100000	0.0	1018.3	140	0.000	0.0
20260324 16:15	15.3	15.3	15.3	40	1.8	0	5	270	0.0	1018.2	109	0.000	0.0
20260324 16:20	15.2	15.2	15.2	39	1.4	2	5	270	0.0	1018.3	81	0.000	0.0
20260324 16:25	15.1	15.1	15.1	40	1.6	0	3	270	0.0	1018.3	66	0.000	0.0
20260324 16:30	14.8	14.8	14.8	41	1.7	0	3	270	0.0	1018.2	54	0.000	0.0
20260324 16:35	14.7	14.7	14.7	42	1.9	0	3	270	0.0	1018.2	54	0.000	0.0
20260324 16:40	14.4	14.4	14.4	43	2.0	0	2	270	0.0	1018.2	60	0.000	0.0
20260324 16:45	14.4	14.4	14.4	43	2.0	0	2	270	0.0	1018.2	52	0.000	0.0
20260324 16:50	14.3	14.3	14.3	43	1.9	0	2	270	0.0	1018.2	40	0.000	0.0
20260324 16:55	14.2	14.2	14.2	42	1.5	0	0	-100000	0.0	1018.1	35	0.000	0.0
20260324 17:00	14.2	14.2	14.2	43	1.8	0	0	-100000	0.0	1018.2	29	0.051	0.0
20260324 17:05	14.1	14.1	14.1	44	2.0	0	0	-100000	0.0	1018.1	24	0.000	0.0
20260324 17:10	13.8	13.8	13.8	44	1.8	0	0	-100000	0.0	1017.9	19	0.000	0.0
20260324 17:15	13.6	13.6	13.6	45	1.9	0	0	-100000	0.0	1017.8	14	0.000	0.0
20260324 17:20	13.3	13.3	13.3	45	1.6	0	3	270	0.0	1018.0	10	0.000	0.0
20260324 17:25	13.1	13.1	13.1	46	1.7	0	2	270	0.0	1017.9	6	0.000	0.0
20260324 17:30	12.8	12.8	12.8	47	1.7	0	0	-100000	0.0	1017.9	2	0.000	0.0
20260324 17:35	12.5	12.5	12.5	48	1.8	0	0	-100000	0.0	1017.8	0	0.000	0.0
20260324 17:40	12.2	12.2	12.2	49	1.8	0	0	-100000	0.0	1017.9	0	0.000	0.0
20260324 17:45	11.9	11.9	11.9	50	1.8	0	0	-100000	0.0	1017.8	0	0.000	0.0
20260324 17:50	11.7	11.7	11.7	51	1.9	0	0	-100000	0.0	1017.7	0	0.000	0.0
20260324 17:55	11.4	11.4	11.4	52	1.9	0	0	-100000	0.0	1017.7	0	0.000	0.0
20260324 18:00	11.1	11.1	11.1	54	2.2	3	5	225	0.0	1017.8	0	0.025	0.0
20260324 18:05	10.8	10.8	10.8	54	1.9	2	5	202	0.0	1017.7	0	0.000	0.0
20260324 18:10	10.6	10.6	10.6	55	1.9	2	5	202	0.0	1017.8	0	0.000	0.0
20260324 18:15	10.3	10.3	10.3	56	1.9	0	0	-100000	0.0	1017.7	0	0.000	0.0
20260324 18:20	10.2	10.2	10.2	56	1.8	0	0	-100000	0.0	1017.7	0	0.000	0.0
20260324 18:25	10.1	10.1	10.1	57	1.9	0	0	-100000	0.0	1017.8	0	0.000	0.0
20260324 18:30	9.9	9.9	9.9	57	1.8	0	0	-100000	0.0	1017.8	0	0.000	0.0
20260324 18:35	9.7	9.7	9.7	58	1.9	0	0	-100000	0.0	1017.8	0	0.000	0.0
20260324 18:40	9.6	9.6	9.6	58	1.7	0	0	-100000	0.0	1018.0	0	0.000	0.0
20260324 18:45	9.3	9.3	9.3	59	1.7	0	0	-100000	0.0	1018.0	0	0.000	0.0
20260324 18:50	9.1	9.1	9.1	61	1.9	0	0	-100000	0.0	1018.0	0	0.000	0.0
20260324 18:55	8.9	8.9	8.9	62	2.0	0	0	-100000	0.0	1017.9	0	0.000	0.0
20260324 19:00	8.7	8.7	8.7	62	1.8	0	5	202	0.0	1017.9	0	0.025	0.0
20260324 19:05	8.4	8.4	8.4	63	1.8	2	5	202	0.0	1017.6	0	0.000	0.0
20260324 19:10	8.3	8.3	8.3	63	1.7	3	5	180	0.0	1017.5	0	0.000	0.0
20260324 19:15	8.3	8.3	8.3	63	1.7	3	6	158	0.0	1017.5	0	0.000	0.0
20260324 19:20	8.2	8.2	8.2	64	1.8	2	3	158	0.0	1017.5	0	0.000	0.0
20260324 19:25	8.2	8.2	8.2	64	1.8	3	5	158	0.0	1017.4	0	0.000	0.0
20260324 19:30	8.1	8.1	8.1	64	1.7	3	6	158	0.0	1017.3	0	0.000	0.0
20260324 19:35	8.1	8.1	8.1	65	1.9	3	6	158	0.0	1017.3	0	0.000	0.0
20260324 19:40	8.1	8.1	8.1	65	1.9	3	6	135	0.0	1017.2	0	0.000	0.0
20260324 19:45	8.0	8.0	8.0	65	1.8	5	8	135	0.0	1017.2	0	0.000	0.0
20260324 19:50	8.1	8.1	8.1	65	1.9	5	8	158	0.0	1017.0	0	0.000	0.0
20260324 19:55	8.1	8.1	8.1	65	1.9	5	8	135	0.0	1016.9	0	0.000	0.0
20260324 20:00	8.2	8.2	8.2	64	1.8	5	8	158	0.0	1016.8	0	0.025	0.0
20260324 20:05	8.1	8.1	8.1	64	1.7	3	6	158	0.0	1016.5	0	0.000	0.0
20260324 20:10	8.1	8.1	8.1	64	1.7	3	6	158	0.0	1016.4	0	0.000	0.0
20260324 20:15	8.1	8.1	8.1	64	1.7	5	8	158	0.0	1016.4	0	0.000	0.0
20260324 20:20	8.1	8.1	8.1	64	1.7	3	6	135	0.0	1016.3	0	0.000	0.0
20260324 20:25	7.9	7.9	7.9	64	1.6	3	6	158	0.0	1016.2	0	0.000	0.0
20260324 20:30	7.8	7.8	7.8	64	1.4	3	6	158	0.0	1016.3	0	0.000	0.0
20260324 20:35	7.7	7.7	7.7	64	1.3	3	6	158	0.0	1016.2	0	0.000	0.0
20260324 20:40	7.6	7.6	7.6	65	1.5	5	8	158	0.0	1016.2	0	0.000	0.0
20260324 20:45	7.4	7.4	7.4	65	1.3	5	8	135	0.0	1016.1	0	0.000	0.0
20260324 20:50	7.3	7.3	7.3	66	1.4	5	8	158	0.0	1016.2	0	0.000	0.0
20260324 20:55	7.2	7.2	7.2	66	1.2	3	6	158	0.0	1016.2	0	0.000	0.0
20260324 21:00	7.2	7.2	7.2	66	1.2	3	6	158	0.0	1016.1	0	0.025	0.0
20260324 21:05	7.1	7.1	7.1	66	1.1	3	6	158	0.0	1015.8	0	0.000	0.0
20260324 21:10	6.9	6.9	6.9	67	1.2	5	8	158	0.0	1015.8	0	0.000	0.0
20260324 21:15	6.8	6.8	6.8	67	1.1	3	8	158	0.0	1015.9	0	0.000	0.0
20260324 21:20	6.8	6.8	6.8	67	1.1	5	6	158	0.0	1015.8	0	0.000	0.0
20260324 21:25	6.7	6.7	6.7	67	1.0	5	6	135	0.0	1015.6	0	0.000	0.0
20260324 21:30	6.6	6.6	6.6	68	1.1	5	8	158	0.0	1015.6	0	0.000	0.0
20260324 21:35	6.5	6.5	6.5	67	0.8	5	8	158	0.0	1015.5	0	0.000	0.0
20260324 21:40	6.4	6.4	6.4	67	0.7	5	10	180	0.0	1015.5	0	0.000	0.0
20260324 21:45	6.3	6.3	6.3	68	0.9	5	10	158	0.0	1015.4	0	0.000	0.0
20260324 21:50	6.2	6.2	6.2	68	0.8	5	11	180	0.0	1015.4	0	0.000	0.0
20260324 21:55	6.1	6.1	6.1	68	0.7	5	11	180	0.0	1015.4	0	0.000	0.0
20260324 22:00	6.0	4.8	6.0	69	0.7	6	11	180	0.0	1015.3	0	0.025	0.0
20260324 22:05	5.9	5.9	5.9	69	0.6	5	10	158	0.0	1015.2	0	0.000	0.0
20260324 22:10	5.8	4.5	5.8	69	0.5	6	14	158	0.0	1015.1	0	0.000	0.0
20260324 22:15	5.8	4.5	5.8	69	0.5	6	11	180	0.0	1015.2	0	0.000	0.0
20260324 22:20	5.7	5.7	5.7	70	0.6	5	10	158	0.0	1015.1	0	0.000	0.0
20260324 22:25	5.6	5.6	5.6	70	0.6	5	11	180	0.0	1015.1	0	0.000	0.0
20260324 22:30	5.6	5.6	5.6	70	0.5	5	11	180	0.0	1015.1	0	0.000	0.0
20260324 22:35	5.4	5.4	5.4	70	0.4	5	10	158	0.0	1015.1	0	0.000	0.0
20260324 22:40	5.4	5.4	5.4	71	0.6	5	11	180	0.0	1015.0	0	0.000	0.0
20260324 22:45	5.3	5.3	5.3	71	0.5	5	8	158	0.0	1015.0	0	0.000	0.0
20260324 22:50	5.3	5.3	5.3	71	0.4	3	10	158	0.0	1014.9	0	0.000	0.0
20260324 22:55	5.3	5.3	5.3	71	0.4	5	10	158	0.0	1014.8	0	0.000	0.0
20260324 23:00	5.3	5.3	5.3	71	0.4	5	10	158	0.0	1014.7	0	0.025	0.0
20260324 23:05	5.3	3.9	5.3	71	0.4	6	11	158	0.0	1014.6	0	0.000	0.0
20260324 23:10	5.3	5.3	5.3	71	0.4	5	11	158	0.0	1014.5	0	0.000	0.0
20260324 23:15	5.2	3.9	5.2	71	0.4	6	11	158	0.0	1014.5	0	0.000	0.0
20260324 23:20	5.2	5.2	5.2	71	0.4	5	11	180	0.0	1014.4	0	0.000	0.0
20260324 23:25	5.2	5.2	5.2	72	0.6	5	11	158	0.0	1014.4	0	0.000	0.0
20260324 23:30	5.2	3.9	5.2	72	0.6	6	10	180	0.0	1014.3	0	0.000	0.0
20260324 23:35	5.2	3.9	5.2	71	0.4	6	10	158	0.0	1014.3	0	0.000	0.0
20260324 23:40	5.2	5.2	5.2	71	0.4	5	11	180	0.0	1014.1	0	0.000	0.0
20260324 23:45	5.2	5.2	5.2	72	0.6	5	13	180	0.0	1014.1	0	0.000	0.0
20260324 23:50	5.2	5.2	5.2	72	0.6	5	10	158	0.0	1014.1	0	0.000	0.0
20260324 23:55	5.2	5.2	5.2	71	0.4	5	11	158	0.0	1014.0	0	0.000	0.0



Please note the license to use and transfer of this data:
https://creativecommons.org/licenses/by-nc-sa/3.0/deed.en

Bitte beachten sie die Lizenz zur Verwertung und Weitergabe der Daten:
https://creativecommons.org/licenses/by-nc-sa/3.0/deed.de

zurück zur Übersicht der Archivdaten (Monats und Tagesdaten)